Time;durP1;ratioP1;P1;durP2;ratioP2;P2;SDS_P1;SDS_P2;PMS_P1;PMS_P2;Temp;Humidity;BMP_temperature;BMP_pressure;BME280_temperature;BME280_humidity;BME280_pressure;Samples;Min_cycle;Max_cycle;Signal;HPM_P1;HPM_P2
2022/10/14 00:02:29;;;;;;;4.47;2.63;;;;;;;;;;9930616;29;20110;-64
2022/10/14 00:07:30;;;;;;;3.70;2.67;;;;;;;;;;9925450;29;20092;-64
2022/10/14 00:12:29;;;;;;;3.55;2.60;;;;;;;;;;9908645;29;20057;-64
2022/10/14 00:17:27;;;;;;;3.65;2.80;;;;;;;;;;9924291;29;20096;-65
2022/10/14 00:22:25;;;;;;;6.88;2.40;;;;;;;;;;9921756;29;20076;-64
2022/10/14 00:27:25;;;;;;;6.38;2.58;;;;;;;;;;9922411;29;20088;-63
2022/10/14 00:32:23;;;;;;;3.85;2.35;;;;;;;;;;9920625;29;20088;-63
2022/10/14 00:37:22;;;;;;;6.35;3.20;;;;;;;;;;9921054;29;20095;-64
2022/10/14 00:42:21;;;;;;;8.27;2.65;;;;;;;;;;9924492;29;20183;-63
2022/10/14 00:47:21;;;;;;;4.47;3.20;;;;;;;;;;9924391;29;20084;-63
2022/10/14 00:52:21;;;;;;;3.95;2.55;;;;;;;;;;9905182;29;20663;-64
2022/10/14 00:57:26;;;;;;;4.32;2.88;;;;;;;;;;9920516;29;20085;-65
2022/10/14 01:02:26;;;;;;;6.30;2.25;;;;;;;;;;9921630;29;20081;-63
2022/10/14 01:07:31;;;;;;;3.47;2.30;;;;;;;;;;9931198;29;20080;-64
2022/10/14 01:12:32;;;;;;;3.58;2.20;;;;;;;;;;9923139;29;20084;-65
2022/10/14 01:17:42;;;;;;;2.75;2.15;;;;;;;;;;9922015;29;20081;-64
2022/10/14 01:22:42;;;;;;;4.13;2.47;;;;;;;;;;9919203;29;20088;-64
2022/10/14 01:27:53;;;;;;;2.90;2.38;;;;;;;;;;9923617;29;20084;-63
2022/10/14 01:33:15;;;;;;;5.25;2.38;;;;;;;;;;9920821;29;20091;-65
2022/10/14 01:38:17;;;;;;;5.13;2.35;;;;;;;;;;9910275;29;20099;-64
2022/10/14 01:43:16;;;;;;;4.00;2.40;;;;;;;;;;9918298;29;20050;-66
2022/10/14 01:48:17;;;;;;;3.65;2.72;;;;;;;;;;9921684;29;20096;-65
2022/10/14 01:53:20;;;;;;;5.40;2.67;;;;;;;;;;9923074;29;20088;-65
2022/10/14 01:58:19;;;;;;;3.38;2.30;;;;;;;;;;9924343;29;20061;-65
2022/10/14 02:03:18;;;;;;;3.70;2.15;;;;;;;;;;9927951;29;20891;-64
2022/10/14 02:08:20;;;;;;;5.57;2.83;;;;;;;;;;9927187;29;20290;-64
2022/10/14 02:13:24;;;;;;;4.65;2.90;;;;;;;;;;9925185;29;20482;-64
2022/10/14 02:18:28;;;;;;;3.92;2.55;;;;;;;;;;9928041;29;20131;-64
2022/10/14 02:23:29;;;;;;;3.10;2.17;;;;;;;;;;9926797;29;20087;-64
2022/10/14 02:28:29;;;;;;;4.90;2.88;;;;;;;;;;9925803;29;20085;-65
2022/10/14 02:33:32;;;;;;;4.45;3.20;;;;;;;;;;9926003;29;20053;-65
2022/10/14 02:38:31;;;;;;;6.47;3.17;;;;;;;;;;9932593;29;20053;-64
2022/10/14 02:43:31;;;;;;;2.85;2.50;;;;;;;;;;9925668;29;20080;-64
2022/10/14 02:48:30;;;;;;;8.68;2.55;;;;;;;;;;9927193;29;20099;-65
2022/10/14 02:53:29;;;;;;;7.88;2.35;;;;;;;;;;9923792;29;20075;-64
2022/10/14 02:58:29;;;;;;;4.72;2.70;;;;;;;;;;9924139;29;20053;-66
2022/10/14 03:03:28;;;;;;;5.05;2.60;;;;;;;;;;9924193;29;20081;-65
2022/10/14 03:08:28;;;;;;;2.88;2.55;;;;;;;;;;9922455;29;20090;-65
2022/10/14 03:13:28;;;;;;;2.65;1.90;;;;;;;;;;9925427;29;20060;-64
2022/10/14 03:18:26;;;;;;;4.53;2.53;;;;;;;;;;9924547;29;20471;-63
2022/10/14 03:23:31;;;;;;;3.10;2.35;;;;;;;;;;9922366;29;20084;-64
2022/10/14 03:28:29;;;;;;;4.32;2.55;;;;;;;;;;9929430;29;20083;-64
2022/10/14 03:33:45;;;;;;;4.70;2.78;;;;;;;;;;9922453;29;20081;-65
2022/10/14 03:38:49;;;;;;;8.80;3.05;;;;;;;;;;9921790;29;20092;-65
2022/10/14 03:43:58;;;;;;;4.88;2.80;;;;;;;;;;9921093;29;20061;-64
2022/10/14 03:48:57;;;;;;;3.38;2.28;;;;;;;;;;9921764;29;20569;-64
2022/10/14 03:53:57;;;;;;;5.22;2.63;;;;;;;;;;9926653;29;20075;-64
2022/10/14 03:58:58;;;;;;;8.52;2.78;;;;;;;;;;9932174;29;20064;-64
2022/10/14 04:03:57;;;;;;;6.55;2.95;;;;;;;;;;9931379;29;20136;-64
2022/10/14 04:08:59;;;;;;;5.13;2.67;;;;;;;;;;9923473;29;20147;-63
2022/10/14 04:14:03;;;;;;;3.88;2.83;;;;;;;;;;9935228;29;20076;-63
2022/10/14 04:19:07;;;;;;;4.30;2.38;;;;;;;;;;9918711;29;20490;-64
2022/10/14 04:24:08;;;;;;;5.88;2.60;;;;;;;;;;9928045;29;20575;-65
2022/10/14 04:29:11;;;;;;;5.25;3.28;;;;;;;;;;9934104;29;20096;-62
2022/10/14 04:34:21;;;;;;;4.68;2.95;;;;;;;;;;9928101;29;20080;-63
2022/10/14 04:39:23;;;;;;;9.57;3.33;;;;;;;;;;9930654;29;20092;-63
2022/10/14 04:44:23;;;;;;;4.70;3.47;;;;;;;;;;9916162;29;20202;-63
2022/10/14 04:49:24;;;;;;;8.43;5.10;;;;;;;;;;9920814;29;20167;-65
2022/10/14 04:54:38;;;;;;;7.95;3.03;;;;;;;;;;9906842;29;20084;-64
2022/10/14 04:59:37;;;;;;;5.32;4.15;;;;;;;;;;9918329;29;20466;-64
2022/10/14 05:05:02;;;;;;;8.40;4.18;;;;;;;;;;9923817;29;20091;-66
2022/10/14 05:10:08;;;;;;;3.85;2.83;;;;;;;;;;9934159;29;20103;-65
2022/10/14 05:15:11;;;;;;;4.15;3.67;;;;;;;;;;9929910;29;20083;-66
2022/10/14 05:20:30;;;;;;;6.07;3.70;;;;;;;;;;9926031;29;20091;-65
2022/10/14 05:25:30;;;;;;;4.13;3.30;;;;;;;;;;9933704;29;20762;-65
2022/10/14 05:30:28;;;;;;;6.78;3.42;;;;;;;;;;9920550;29;20095;-65
2022/10/14 05:35:34;;;;;;;4.47;3.60;;;;;;;;;;9935408;29;20096;-65
2022/10/14 05:40:54;;;;;;;14.25;4.60;;;;;;;;;;9938496;29;20103;-62
2022/10/14 05:45:53;;;;;;;7.90;5.15;;;;;;;;;;9937483;29;20084;-63
2022/10/14 05:50:54;;;;;;;9.43;5.50;;;;;;;;;;9940154;29;20099;-64
2022/10/14 05:56:02;;;;;;;13.00;5.07;;;;;;;;;;9937013;29;20129;-64
2022/10/14 06:01:01;;;;;;;9.13;5.05;;;;;;;;;;9928213;29;20080;-63
2022/10/14 06:06:00;;;;;;;11.40;5.45;;;;;;;;;;9925844;29;20079;-64
2022/10/14 06:11:04;;;;;;;11.63;7.07;;;;;;;;;;9928229;29;20087;-64
2022/10/14 06:16:04;;;;;;;9.73;5.80;;;;;;;;;;9923932;29;20091;-63
2022/10/14 06:21:03;;;;;;;15.65;6.68;;;;;;;;;;9924656;29;20522;-63
2022/10/14 06:26:05;;;;;;;12.93;5.20;;;;;;;;;;9926686;29;20080;-63
2022/10/14 06:31:03;;;;;;;16.85;9.20;;;;;;;;;;9926995;29;20140;-62
2022/10/14 06:36:01;;;;;;;17.27;8.50;;;;;;;;;;9928855;29;20640;-64
2022/10/14 06:40:59;;;;;;;10.35;6.43;;;;;;;;;;9929024;29;20088;-63
2022/10/14 06:45:59;;;;;;;7.82;5.70;;;;;;;;;;9927615;29;20081;-63
2022/10/14 06:50:58;;;;;;;11.30;6.00;;;;;;;;;;9930878;29;20088;-61
2022/10/14 06:56:00;;;;;;;14.05;8.40;;;;;;;;;;9928576;29;20273;-63
2022/10/14 07:01:02;;;;;;;9.23;5.55;;;;;;;;;;9925603;29;20095;-63
2022/10/14 07:06:02;;;;;;;12.80;7.38;;;;;;;;;;9929577;29;20471;-63
2022/10/14 07:11:00;;;;;;;11.85;6.30;;;;;;;;;;9925140;29;20076;-64
2022/10/14 07:15:59;;;;;;;15.98;6.05;;;;;;;;;;9924138;29;20087;-63
2022/10/14 07:21:01;;;;;;;26.50;14.82;;;;;;;;;;9929127;29;20084;-64
2022/10/14 07:25:59;;;;;;;11.43;7.63;;;;;;;;;;9924547;29;20131;-63
2022/10/14 07:30:59;;;;;;;11.88;7.57;;;;;;;;;;9924964;29;20092;-62
2022/10/14 07:36:02;;;;;;;10.25;8.38;;;;;;;;;;9923939;29;20087;-63
2022/10/14 07:41:04;;;;;;;11.98;8.65;;;;;;;;;;9924662;29;20084;-63
2022/10/14 07:46:03;;;;;;;12.85;9.02;;;;;;;;;;9925607;29;20060;-64
2022/10/14 07:51:03;;;;;;;15.55;9.25;;;;;;;;;;9925253;29;20459;-64
2022/10/14 07:56:01;;;;;;;10.30;9.10;;;;;;;;;;9938278;29;20077;-64
2022/10/14 08:00:59;;;;;;;11.20;9.52;;;;;;;;;;9943513;29;20503;-63
2022/10/14 08:05:58;;;;;;;13.55;9.38;;;;;;;;;;9924783;29;20087;-62
2022/10/14 08:11:01;;;;;;;13.75;10.02;;;;;;;;;;9925336;29;20080;-64
2022/10/14 08:16:01;;;;;;;13.23;10.68;;;;;;;;;;9925964;29;20527;-64
2022/10/14 08:20:59;;;;;;;23.23;16.17;;;;;;;;;;9923535;29;20059;-64
2022/10/14 08:25:57;;;;;;;23.48;12.10;;;;;;;;;;9928292;29;20081;-65
2022/10/14 08:30:57;;;;;;;15.80;12.32;;;;;;;;;;9922106;29;20091;-62
2022/10/14 08:35:56;;;;;;;23.13;10.25;;;;;;;;;;9921384;29;20147;-63
2022/10/14 08:40:59;;;;;;;22.67;17.90;;;;;;;;;;9923748;29;20504;-63
2022/10/14 08:46:02;;;;;;;11.88;8.80;;;;;;;;;;9907747;29;20092;-64
2022/10/14 08:51:04;;;;;;;12.00;9.45;;;;;;;;;;9925875;29;20083;-63
2022/10/14 08:56:03;;;;;;;12.40;8.95;;;;;;;;;;9925653;29;20081;-64
2022/10/14 09:01:05;;;;;;;11.10;8.32;;;;;;;;;;9924970;29;20147;-63
2022/10/14 09:06:11;;;;;;;22.92;12.63;;;;;;;;;;9924250;29;20079;-64
2022/10/14 09:11:12;;;;;;;18.10;10.88;;;;;;;;;;9924677;29;20091;-63
2022/10/14 09:16:14;;;;;;;11.20;9.93;;;;;;;;;;9923136;29;20096;-64
2022/10/14 09:21:22;;;;;;;17.25;11.75;;;;;;;;;;9922878;29;20091;-64
2022/10/14 09:26:41;;;;;;;19.17;11.07;;;;;;;;;;9920619;29;20742;-63
2022/10/14 09:31:41;;;;;;;17.23;11.10;;;;;;;;;;9923495;29;20549;-64
2022/10/14 09:36:39;;;;;;;23.42;10.75;;;;;;;;;;9923850;29;20502;-63
2022/10/14 09:41:38;;;;;;;13.10;7.82;;;;;;;;;;9923967;29;20084;-64
2022/10/14 09:46:36;;;;;;;12.55;10.13;;;;;;;;;;9923868;29;20075;-64
2022/10/14 09:51:36;;;;;;;10.18;8.68;;;;;;;;;;9923256;29;20495;-62
2022/10/14 09:56:35;;;;;;;11.98;7.03;;;;;;;;;;9920458;29;20052;-63
2022/10/14 10:01:40;;;;;;;9.27;7.68;;;;;;;;;;9922526;29;20080;-64
2022/10/14 10:06:50;;;;;;;21.83;14.63;;;;;;;;;;9920838;29;20088;-64
2022/10/14 10:11:49;;;;;;;12.52;9.30;;;;;;;;;;9921355;29;20513;-65
2022/10/14 10:16:47;;;;;;;15.55;9.45;;;;;;;;;;9921280;29;20073;-64
2022/10/14 10:21:47;;;;;;;21.80;11.77;;;;;;;;;;9928092;29;20125;-64
2022/10/14 10:26:46;;;;;;;25.73;18.42;;;;;;;;;;9932829;29;20073;-64
2022/10/14 10:32:02;;;;;;;14.20;9.38;;;;;;;;;;9927311;29;20083;-64
2022/10/14 10:37:07;;;;;;;18.85;9.23;;;;;;;;;;9937296;29;20080;-63
2022/10/14 10:42:09;;;;;;;10.43;6.38;;;;;;;;;;9934350;29;20077;-63
2022/10/14 10:47:14;;;;;;;10.10;6.20;;;;;;;;;;9927167;29;20081;-63
2022/10/14 10:52:16;;;;;;;11.18;6.07;;;;;;;;;;9928397;29;20411;-63
2022/10/14 10:57:29;;;;;;;9.50;6.53;;;;;;;;;;9927815;29;20080;-64
2022/10/14 11:02:38;;;;;;;10.32;5.93;;;;;;;;;;9927796;29;20514;-63
2022/10/14 11:13:11;;;;;;;8.05;4.80;;;;;;;;;;9917425;29;20085;-63
2022/10/14 11:18:13;;;;;;;9.88;5.20;;;;;;;;;;9939879;29;20092;-64
2022/10/14 11:23:29;;;;;;;6.45;3.97;;;;;;;;;;9930109;29;20088;-63
2022/10/14 11:28:34;;;;;;;5.95;4.97;;;;;;;;;;9928743;29;20132;-63
2022/10/14 11:33:41;;;;;;;6.50;3.97;;;;;;;;;;9929325;29;20085;-67
2022/10/14 11:38:48;;;;;;;6.55;4.90;;;;;;;;;;9928120;29;20506;-64
2022/10/14 11:43:49;;;;;;;9.70;4.35;;;;;;;;;;9934208;29;20060;-63
2022/10/14 11:48:51;;;;;;;7.53;4.28;;;;;;;;;;9925958;29;20095;-63
2022/10/14 11:53:55;;;;;;;6.88;4.20;;;;;;;;;;9923392;29;20085;-64
2022/10/14 12:04:28;;;;;;;7.75;4.22;;;;;;;;;;9930831;29;20080;-65
2022/10/14 12:09:32;;;;;;;6.53;3.88;;;;;;;;;;9926809;29;20068;-64
2022/10/14 12:14:33;;;;;;;5.55;4.22;;;;;;;;;;9923288;29;20076;-64
2022/10/14 12:19:31;;;;;;;7.78;4.20;;;;;;;;;;9926854;29;20103;-64
2022/10/14 12:24:33;;;;;;;4.43;3.42;;;;;;;;;;9929025;29;20077;-63
2022/10/14 12:29:34;;;;;;;7.15;4.43;;;;;;;;;;9921959;29;20494;-64
2022/10/14 12:34:34;;;;;;;9.15;4.45;;;;;;;;;;9924192;29;20077;-65
2022/10/14 12:39:41;;;;;;;5.20;3.90;;;;;;;;;;9918446;29;20080;-63
2022/10/14 12:44:43;;;;;;;8.55;3.63;;;;;;;;;;9918225;29;20478;-64
2022/10/14 12:49:46;;;;;;;8.73;4.10;;;;;;;;;;9926377;29;20080;-64
2022/10/14 12:54:47;;;;;;;8.23;4.32;;;;;;;;;;9921633;29;20088;-64
2022/10/14 12:59:50;;;;;;;9.32;4.13;;;;;;;;;;9923526;29;20111;-64
2022/10/14 13:04:52;;;;;;;5.18;3.55;;;;;;;;;;9926971;29;20072;-65
2022/10/14 13:10:20;;;;;;;9.80;4.68;;;;;;;;;;9924110;29;20079;-67
2022/10/14 13:15:49;;;;;;;8.43;4.78;;;;;;;;;;9921457;29;20108;-64
2022/10/14 13:20:50;;;;;;;7.15;4.53;;;;;;;;;;9929808;29;21010;-64
2022/10/14 13:25:50;;;;;;;11.60;5.50;;;;;;;;;;9931069;29;20092;-64
2022/10/14 13:30:55;;;;;;;11.55;3.95;;;;;;;;;;9940954;29;20088;-65
2022/10/14 13:36:02;;;;;;;10.05;4.53;;;;;;;;;;9950498;29;20494;-64
2022/10/14 13:41:07;;;;;;;8.85;3.53;;;;;;;;;;9943413;29;20106;-64
2022/10/14 13:46:09;;;;;;;9.05;3.40;;;;;;;;;;9931321;29;20084;-65
2022/10/14 13:51:16;;;;;;;5.30;3.05;;;;;;;;;;9936048;29;20485;-63
2022/10/14 13:56:33;;;;;;;18.60;11.90;;;;;;;;;;9929767;29;20079;-64
2022/10/14 14:01:36;;;;;;;5.80;3.60;;;;;;;;;;9935218;29;20088;-64
2022/10/14 14:06:43;;;;;;;6.65;4.13;;;;;;;;;;9926678;29;20085;-64
2022/10/14 14:12:03;;;;;;;6.40;3.60;;;;;;;;;;9937312;29;20103;-64
2022/10/14 14:17:02;;;;;;;14.77;3.58;;;;;;;;;;9937479;29;20076;-62
2022/10/14 14:22:08;;;;;;;8.23;3.95;;;;;;;;;;9922209;29;20083;-64
2022/10/14 14:27:12;;;;;;;7.57;3.85;;;;;;;;;;9923133;29;20079;-64
2022/10/14 14:32:15;;;;;;;5.20;4.00;;;;;;;;;;9926358;29;20102;-64
2022/10/14 14:37:15;;;;;;;6.87;4.83;;;;;;;;;;9923948;29;20612;-65
2022/10/14 14:42:35;;;;;;;5.68;4.25;;;;;;;;;;9925573;29;20091;-63
2022/10/14 14:47:34;;;;;;;5.78;2.38;;;;;;;;;;9925374;29;20083;-63
2022/10/14 14:52:32;;;;;;;4.50;2.97;;;;;;;;;;9923619;29;20188;-65
2022/10/14 14:57:36;;;;;;;3.97;2.88;;;;;;;;;;9928964;29;20073;-63
2022/10/14 15:02:34;;;;;;;5.80;4.03;;;;;;;;;;9929521;29;20108;-63
2022/10/14 15:07:34;;;;;;;6.20;3.78;;;;;;;;;;9928343;29;20069;-63
2022/10/14 15:12:37;;;;;;;9.23;4.38;;;;;;;;;;9927391;29;20076;-65
2022/10/14 15:17:38;;;;;;;6.30;3.97;;;;;;;;;;9928362;29;20081;-64
2022/10/14 15:22:36;;;;;;;10.00;4.15;;;;;;;;;;9924841;29;20081;-64
2022/10/14 15:27:40;;;;;;;9.60;5.13;;;;;;;;;;9923686;29;20072;-64
2022/10/14 15:32:45;;;;;;;8.35;4.75;;;;;;;;;;9924647;29;20546;-64
2022/10/14 15:37:43;;;;;;;7.65;5.15;;;;;;;;;;9929130;29;20077;-64
2022/10/14 15:42:41;;;;;;;6.45;5.00;;;;;;;;;;9922995;29;20087;-64
2022/10/14 15:47:42;;;;;;;13.52;4.45;;;;;;;;;;9924288;29;20088;-64
2022/10/14 15:52:41;;;;;;;11.75;5.38;;;;;;;;;;9925763;29;20502;-63
2022/10/14 15:57:40;;;;;;;16.08;4.72;;;;;;;;;;9924617;29;20088;-64
2022/10/14 16:02:39;;;;;;;8.30;5.22;;;;;;;;;;9938010;29;20080;-63
2022/10/14 16:07:39;;;;;;;13.23;4.90;;;;;;;;;;9925586;29;20077;-63
2022/10/14 16:12:40;;;;;;;11.63;4.95;;;;;;;;;;9923325;29;20060;-64
2022/10/14 16:17:38;;;;;;;10.18;5.35;;;;;;;;;;9922284;29;20103;-63
2022/10/14 16:22:36;;;;;;;10.10;5.03;;;;;;;;;;9925069;29;20523;-63
2022/10/14 16:27:35;;;;;;;6.55;4.50;;;;;;;;;;9923825;29;20511;-63
2022/10/14 16:32:34;;;;;;;11.48;4.80;;;;;;;;;;9922997;29;20092;-63
2022/10/14 16:37:33;;;;;;;7.43;5.97;;;;;;;;;;9928175;29;20491;-64
2022/10/14 16:42:31;;;;;;;7.18;4.80;;;;;;;;;;9924029;29;20076;-64
2022/10/14 16:47:29;;;;;;;12.65;6.20;;;;;;;;;;9930287;29;20065;-64
2022/10/14 16:53:39;;;;;;;10.18;4.70;;;;;;;;;;9933714;29;20091;-63
2022/10/14 16:57:50;;;;;;;10.23;4.53;;;;;;;;;;9939836;29;20076;-63
2022/10/14 17:02:48;;;;;;;10.68;5.07;;;;;;;;;;9923475;29;20073;-63
2022/10/14 17:07:48;;;;;;;11.52;5.70;;;;;;;;;;9925890;29;20073;-63
2022/10/14 17:12:46;;;;;;;11.55;5.50;;;;;;;;;;9931431;29;20088;-63
2022/10/14 17:17:45;;;;;;;9.25;5.68;;;;;;;;;;9929151;29;20080;-63
2022/10/14 17:22:43;;;;;;;6.30;5.30;;;;;;;;;;9932252;29;20659;-64
2022/10/14 17:27:43;;;;;;;13.60;6.25;;;;;;;;;;9941147;29;20076;-64
2022/10/14 17:32:41;;;;;;;13.88;6.00;;;;;;;;;;9943917;29;20083;-64
2022/10/14 17:37:41;;;;;;;7.68;5.00;;;;;;;;;;9931825;29;20081;-63
2022/10/14 17:42:40;;;;;;;11.18;5.43;;;;;;;;;;9942373;29;20076;-62
2022/10/14 17:47:40;;;;;;;10.02;5.53;;;;;;;;;;9951473;29;20073;-63
2022/10/14 17:52:41;;;;;;;8.25;6.10;;;;;;;;;;9945844;29;20083;-64
2022/10/14 17:57:39;;;;;;;11.88;5.90;;;;;;;;;;9942446;29;20087;-63
2022/10/14 18:02:37;;;;;;;9.65;6.38;;;;;;;;;;9941802;29;20081;-63
2022/10/14 18:07:38;;;;;;;46.90;28.70;;;;;;;;;;9949953;29;20083;-63
2022/10/14 18:12:36;;;;;;;13.18;6.43;;;;;;;;;;9945125;29;20505;-63
2022/10/14 18:17:35;;;;;;;13.15;5.95;;;;;;;;;;9939998;29;20077;-63
2022/10/14 18:22:33;;;;;;;8.77;5.57;;;;;;;;;;9945965;29;20538;-63
2022/10/14 18:27:33;;;;;;;8.18;4.28;;;;;;;;;;9940462;29;20069;-63
2022/10/14 18:32:32;;;;;;;6.20;4.10;;;;;;;;;;9945351;29;20481;-64
2022/10/14 18:37:30;;;;;;;6.70;5.38;;;;;;;;;;9963414;29;20072;-63
2022/10/14 18:42:31;;;;;;;11.73;5.45;;;;;;;;;;9971928;29;20076;-63
2022/10/14 18:47:31;;;;;;;8.43;7.57;;;;;;;;;;9928079;29;20060;-64
2022/10/14 18:52:32;;;;;;;6.28;3.72;;;;;;;;;;9931874;29;20590;-63
2022/10/14 18:57:30;;;;;;;6.80;4.45;;;;;;;;;;9936274;29;20103;-63
2022/10/14 19:02:30;;;;;;;12.63;3.78;;;;;;;;;;9935856;29;20108;-64
2022/10/14 19:07:31;;;;;;;6.95;3.08;;;;;;;;;;9942511;29;20072;-63
2022/10/14 19:12:41;;;;;;;5.93;3.70;;;;;;;;;;9955249;29;20076;-63
2022/10/14 19:17:40;;;;;;;4.32;2.90;;;;;;;;;;9952650;29;20088;-64
2022/10/14 19:22:43;;;;;;;8.95;3.80;;;;;;;;;;9932038;29;20072;-64
2022/10/14 19:27:42;;;;;;;6.75;3.60;;;;;;;;;;9931308;29;20077;-64
2022/10/14 19:32:40;;;;;;;4.57;2.80;;;;;;;;;;9940949;29;20103;-64
2022/10/14 19:37:42;;;;;;;7.10;3.10;;;;;;;;;;9936497;29;20144;-65
2022/10/14 19:42:42;;;;;;;5.38;3.17;;;;;;;;;;9931398;29;20115;-65
2022/10/14 19:47:45;;;;;;;6.45;3.90;;;;;;;;;;9930301;29;20258;-65
2022/10/14 19:52:45;;;;;;;5.93;2.55;;;;;;;;;;9930828;29;20088;-65
2022/10/14 19:57:45;;;;;;;7.45;3.15;;;;;;;;;;9939580;29;20084;-64
2022/10/14 20:02:45;;;;;;;4.57;3.53;;;;;;;;;;9942957;29;20507;-64
2022/10/14 20:07:45;;;;;;;5.57;2.97;;;;;;;;;;9958722;29;20426;-64
2022/10/14 20:12:43;;;;;;;5.82;2.75;;;;;;;;;;9956818;29;20096;-63
2022/10/14 20:17:41;;;;;;;6.25;2.70;;;;;;;;;;9924907;29;20077;-65
2022/10/14 20:22:40;;;;;;;6.30;2.92;;;;;;;;;;9925802;29;20081;-64
2022/10/14 20:27:39;;;;;;;7.68;3.03;;;;;;;;;;9925820;29;20456;-64
2022/10/14 20:32:38;;;;;;;9.35;3.05;;;;;;;;;;9924676;29;20146;-64
2022/10/14 20:37:36;;;;;;;6.15;3.13;;;;;;;;;;9921895;29;20080;-65
2022/10/14 20:42:35;;;;;;;7.85;3.20;;;;;;;;;;9921163;29;20069;-64
2022/10/14 20:47:34;;;;;;;5.32;3.05;;;;;;;;;;9923272;29;20472;-64
2022/10/14 20:52:34;;;;;;;7.50;3.28;;;;;;;;;;9926011;29;20073;-63
2022/10/14 20:57:32;;;;;;;7.03;3.63;;;;;;;;;;9921441;29;20087;-66
2022/10/14 21:02:30;;;;;;;5.82;3.60;;;;;;;;;;9921098;29;20080;-65
2022/10/14 21:07:30;;;;;;;5.13;3.40;;;;;;;;;;9930837;29;20083;-65
2022/10/14 21:12:30;;;;;;;8.13;2.70;;;;;;;;;;9931677;29;20088;-63
2022/10/14 21:17:29;;;;;;;8.10;3.67;;;;;;;;;;9927292;29;20077;-65
2022/10/14 21:22:34;;;;;;;7.75;4.07;;;;;;;;;;9924717;29;20076;-65
2022/10/14 21:27:33;;;;;;;6.75;3.45;;;;;;;;;;9920348;29;20084;-63
2022/10/14 21:32:31;;;;;;;3.72;2.97;;;;;;;;;;9924851;29;20084;-63
2022/10/14 21:37:29;;;;;;;4.55;3.20;;;;;;;;;;9923896;29;20084;-64
2022/10/14 21:42:29;;;;;;;11.75;3.28;;;;;;;;;;9923734;29;20084;-64
2022/10/14 21:47:27;;;;;;;7.65;3.10;;;;;;;;;;9920565;29;20072;-64
2022/10/14 21:52:26;;;;;;;5.53;3.63;;;;;;;;;;9922919;29;20091;-63
2022/10/14 21:57:24;;;;;;;7.45;3.72;;;;;;;;;;9950127;29;20083;-63
2022/10/14 22:02:24;;;;;;;7.75;3.42;;;;;;;;;;9968167;29;20483;-65
2022/10/14 22:07:24;;;;;;;7.60;3.60;;;;;;;;;;9943817;29;20561;-64
2022/10/14 22:12:27;;;;;;;8.40;3.65;;;;;;;;;;9921094;29;20151;-62
2022/10/14 22:17:28;;;;;;;6.60;3.08;;;;;;;;;;9929062;29;20080;-64
2022/10/14 22:22:27;;;;;;;10.05;3.63;;;;;;;;;;9928054;29;20120;-64
2022/10/14 22:27:25;;;;;;;12.10;3.78;;;;;;;;;;9926159;29;20525;-63
2022/10/14 22:32:24;;;;;;;5.22;2.95;;;;;;;;;;9926640;29;20087;-63
2022/10/14 22:37:23;;;;;;;4.85;3.10;;;;;;;;;;9927860;29;20622;-65
2022/10/14 22:42:23;;;;;;;7.15;3.75;;;;;;;;;;9926970;29;20088;-67
2022/10/14 22:47:21;;;;;;;7.18;3.47;;;;;;;;;;9928065;29;20077;-64
2022/10/14 22:52:20;;;;;;;7.32;3.58;;;;;;;;;;9925416;29;20088;-64
2022/10/14 22:57:21;;;;;;;5.15;2.90;;;;;;;;;;9926429;29;20155;-64
2022/10/14 23:02:19;;;;;;;6.85;3.35;;;;;;;;;;9925652;29;20088;-64
2022/10/14 23:07:19;;;;;;;7.00;3.25;;;;;;;;;;9925905;29;20084;-64
2022/10/14 23:12:17;;;;;;;4.03;2.90;;;;;;;;;;9926898;29;20084;-64
2022/10/14 23:17:17;;;;;;;5.55;3.40;;;;;;;;;;9926118;29;20085;-64
2022/10/14 23:22:15;;;;;;;6.35;3.05;;;;;;;;;;9924457;29;20083;-63
2022/10/14 23:27:13;;;;;;;3.92;2.70;;;;;;;;;;9924756;29;20080;-63
2022/10/14 23:32:11;;;;;;;5.50;3.28;;;;;;;;;;9928911;29;20450;-63
2022/10/14 23:37:11;;;;;;;5.45;2.88;;;;;;;;;;9925515;29;20158;-63
2022/10/14 23:42:09;;;;;;;5.43;3.08;;;;;;;;;;9926684;29;20099;-64
2022/10/14 23:47:08;;;;;;;5.53;3.08;;;;;;;;;;9927651;29;20057;-66
2022/10/14 23:52:06;;;;;;;5.05;2.88;;;;;;;;;;9925050;29;20084;-64
2022/10/14 23:57:05;;;;;;;6.07;3.47;;;;;;;;;;9927862;29;20080;-64
